Airport Name : Almaty

Other Name : Almaty

ICAO : UAAA

IATA : ALA

FAA :

Latitude : 43.352072

Longitude : 77.040508

Country : Kazakhstan

Local Date and Time : 15 Jul 2024 20:15

 

TAF (Terminal Aerodrome Forecast)

TAF UAAA 151102Z 1512/1612 26003MPS 9999 SCT050CB BKN100 TX29/1610Z TN18/1601Z TEMPO 1512/1518 21008G16MPS 3100 -TSRA BLDU BKN040CB OVC100 TEMPO 1518/1524 17003G08MPS 5000 -SHRA BR BECMG 1600/1601 25003MPS TEMPO 1600/1612 30008G15MPS 3100 -TSRA BKN040CB OVC100

 

METAR (METeorological Aerodrome Report)

UAAA 151400Z 15003MPS 090V170 9999 SCT050CB BKN100 23/16 Q1008 NOSIG

UAAA 151330Z 01002MPS 350V060 9999 SCT050CB BKN100 23/16 Q1008 NOSIG

UAAA 151300Z 34006MPS 9999 SCT050CB BKN100 25/16 Q1007 NOSIG

UAAA 151255Z 35007MPS 9999 SCT050CB BKN100 26/16 Q1007 NOSIG

UAAA 151230Z 03005MPS 9999 SCT050CB BKN100 28/17 Q1007 TEMPO 24010G15MPS 3000 TSRA BLDU

UAAA 151200Z 15002MPS 100V200 9999 VCTS SCT050CB BKN100 28/15 Q1007 TEMPO 24010G15MPS 3000 TSRA BLDU

UAAA 151130Z 14004MPS 9999 VCTS SCT050CB BKN100 29/18 Q1007 TEMPO 24010G15MPS 3000 TSRA BLDU

UAAA 151100Z 10002MPS 070V130 9999 -SHRA VCTS BKN050CB OVC100 28/17 Q1007 TEMPO 24010G15MPS 3000 TSRA BLDU

UAAA 151030Z 05002MPS 010V110 9999 VCTS SCT050CB BKN100 28/14 Q1007 NOSIG